Terminal Aerodrome Forecast
Issued by NWS Cleveland, OH

Home | Current Version | Previous Version | Text Only | Print | Product List | Glossary On
Versions: 1 2 3 4 5 6 7 8 9 10 11 12 13 14 15 16 17 18 19 20 21 22 23 24 25 26 27 28
698
FTUS41 KCLE 092052 AAA
TAFCLE
TAF AMD
KCLE 092052Z 0921/1024 24014G20KT 6SM -SHSN SCT025 OVC035
      TEMPO 0921/0923 5SM -SHSN OVC025
     FM092300 26010KT 5SM -SN OVC025
      TEMPO 0923/1002 2SM -SHSN OVC015
     FM100500 25012KT P6SM -SHSN OVC015
     FM101600 25012KT P6SM OVC025=

USA.gov is the U.S. government's official web portal to all federal, state and local government web resources and services.